Time;durP1;ratioP1;P1;durP2;ratioP2;P2;SDS_P1;SDS_P2;PMS_P1;PMS_P2;Temp;Humidity;BMP_temperature;BMP_pressure;BME280_temperature;BME280_humidity;BME280_pressure;Samples;Min_cycle;Max_cycle;Signal;HPM_P1;HPM_P2
2023/08/27 00:00:34;;;;;;;;;1.00;1.00;;;;;28.46;38.19;100960.16;5119032;27;45474;-75
2023/08/27 00:02:59;;;;;;;;;2.00;2.00;;;;;28.31;38.40;100939.91;5119484;27;45407;-75
2023/08/27 00:05:24;;;;;;;;;0.00;0.00;;;;;28.40;38.94;100953.81;5119270;27;45465;-75
2023/08/27 00:07:50;;;;;;;;;1.00;1.00;;;;;28.40;38.52;100953.81;5118118;27;45729;-75
2023/08/27 00:10:15;;;;;;;;;2.00;2.00;;;;;28.44;38.34;100954.19;5119205;27;45360;-74
2023/08/27 00:12:40;;;;;;;;;1.00;1.00;;;;;28.43;38.67;100953.38;5119392;27;45341;-75
2023/08/27 00:15:06;;;;;;;;;1.00;1.00;;;;;28.23;38.65;100919.63;5118765;27;45558;-75
2023/08/27 00:17:32;;;;;;;;;0.00;0.00;;;;;28.34;38.98;100934.09;5118900;27;45544;-74
2023/08/27 00:19:58;;;;;;;;;1.00;1.00;;;;;28.41;38.56;100942.06;5118948;27;45403;-75
2023/08/27 00:22:23;;;;;;;;;1.00;1.00;;;;;28.36;38.48;100942.75;5119014;27;45390;-74
2023/08/27 00:24:48;;;;;;;;;1.33;1.00;;;;;28.35;38.81;100940.28;5100406;27;45451;-75
2023/08/27 00:27:14;;;;;;;;;1.00;1.00;;;;;28.26;38.24;100921.81;5118879;27;46621;-75
2023/08/27 00:29:40;;;;;;;;;0.00;0.00;;;;;28.40;38.42;100943.94;5118418;27;45423;-75
2023/08/27 00:32:05;;;;;;;;;0.00;0.00;;;;;28.41;38.51;100944.75;5119025;27;45372;-75
2023/08/27 00:34:35;;;;;;;;;0.00;0.00;;;;;28.39;38.74;100936.94;5118333;27;45388;-74
2023/08/27 00:37:01;;;;;;;;;0.00;0.00;;;;;28.28;38.77;100925.13;5118903;27;46424;-74
2023/08/27 00:39:28;;;;;;;;;0.33;0.33;;;;;28.38;38.96;100946.00;5118778;27;45418;-75
2023/08/27 00:41:53;;;;;;;;;1.00;1.00;;;;;28.39;39.16;100939.59;5118692;27;45366;-75
2023/08/27 00:44:19;;;;;;;;;0.33;0.00;;;;;28.29;38.91;100926.75;5118170;27;45438;-74
2023/08/27 00:46:44;;;;;;;;;0.00;0.00;;;;;28.40;38.29;100938.56;5118304;27;47121;-74
2023/08/27 00:49:11;;;;;;;;;1.00;1.00;;;;;28.39;38.60;100934.25;5118530;27;45417;-74
2023/08/27 00:51:37;;;;;;;;;0.33;0.33;;;;;28.41;38.75;100934.06;5118788;27;45324;-75
2023/08/27 00:54:04;;;;;;;;;1.00;0.33;;;;;28.36;38.59;100920.53;5118359;27;45587;-75
2023/08/27 00:56:30;;;;;;;;;0.00;0.00;;;;;28.14;38.42;100889.66;5117981;27;45587;-75
2023/08/27 00:58:56;;;;;;;;;2.00;2.00;;;;;28.36;38.41;100926.69;5118024;27;45352;-72
2023/08/27 01:01:23;;;;;;;;;0.33;0.33;;;;;28.36;39.00;100905.28;5117302;27;45330;-75
2023/08/27 01:03:49;;;;;;;;;0.67;0.67;;;;;28.38;38.79;100913.91;5118270;27;45334;-75
2023/08/27 01:06:14;;;;;;;;;1.67;1.00;;;;;28.31;38.92;100899.78;5118037;27;46066;-75
2023/08/27 01:09:01;;;;;;;;;2.00;1.00;;;;;28.43;38.36;100923.13;5118305;27;45475;-74
2023/08/27 01:11:45;;;;;;;;;0.00;0.00;;;;;28.41;38.29;100928.69;5118331;27;45462;-73
2023/08/27 01:14:10;;;;;;;;;0.00;0.00;;;;;28.37;39.08;100922.13;5117796;27;45366;-75
2023/08/27 01:16:38;;;;;;;;;2.33;0.67;;;;;28.39;39.17;100931.56;5117949;27;45348;-74
2023/08/27 01:19:14;;;;;;;;;0.67;0.67;;;;;28.39;38.40;100931.56;5118105;27;45312;-74
2023/08/27 01:21:43;;;;;;;;;0.67;0.33;;;;;28.40;39.14;100930.56;5118106;27;45360;-75
2023/08/27 01:24:10;;;;;;;;;0.67;0.67;;;;;28.39;39.09;100934.25;5117927;27;45439;-75
2023/08/27 01:26:47;;;;;;;;;1.00;1.00;;;;;28.40;39.13;100929.72;5117674;27;46654;-74
2023/08/27 01:29:39;;;;;;;;;0.67;0.67;;;;;28.38;39.01;100921.94;5117469;27;45335;-75
2023/08/27 01:32:29;;;;;;;;;1.00;1.00;;;;;28.39;38.69;100914.72;5117972;27;45378;-74
2023/08/27 01:34:56;;;;;;;;;0.00;0.00;;;;;28.37;38.75;100922.97;5117611;27;45330;-74
2023/08/27 01:37:22;;;;;;;;;1.00;1.00;;;;;28.37;38.41;100922.13;5117815;27;46202;-74
2023/08/27 01:40:08;;;;;;;;;1.00;1.00;;;;;28.39;38.99;100914.72;5117749;27;45380;-74
2023/08/27 01:42:37;;;;;;;;;0.67;0.67;;;;;28.33;38.58;100911.06;5116709;27;45387;-74
2023/08/27 01:45:04;;;;;;;;;0.00;0.00;;;;;28.35;38.45;100909.00;5117308;27;45446;-73
2023/08/27 01:47:30;;;;;;;;;1.00;1.00;;;;;28.22;39.03;100903.78;5117705;27;47602;-74
2023/08/27 01:49:55;;;;;;;;;0.33;0.33;;;;;28.36;38.89;100925.88;5117564;27;45497;-74
2023/08/27 01:52:20;;;;;;;;;1.00;1.00;;;;;28.30;38.52;100914.19;5117756;27;45399;-74
2023/08/27 01:54:46;;;;;;;;;0.33;0.00;;;;;28.36;38.55;100925.88;5117576;27;45355;-74
2023/08/27 01:57:12;;;;;;;;;1.00;1.00;;;;;28.37;38.88;100922.13;5116363;27;46173;-73
2023/08/27 01:59:38;;;;;;;;;1.00;1.00;;;;;28.30;38.67;100908.84;5117402;27;45377;-74
2023/08/27 02:02:03;;;;;;;;;0.67;0.67;;;;;28.26;38.78;100907.66;5117506;27;45391;-74
2023/08/27 02:04:28;;;;;;;;;1.00;1.00;;;;;28.35;38.69;100925.03;5117179;27;45496;-74
2023/08/27 02:06:54;;;;;;;;;1.00;0.00;;;;;28.36;38.59;100921.34;5117258;27;46539;-74
2023/08/27 02:09:19;;;;;;;;;0.00;0.00;;;;;28.35;38.99;100926.91;5117357;27;45398;-74
2023/08/27 02:11:44;;;;;;;;;1.00;1.00;;;;;28.31;39.24;100926.53;5117107;27;45399;-74
2023/08/27 02:14:10;;;;;;;;;1.00;1.00;;;;;28.38;38.30;100943.34;5117394;27;45480;-74
2023/08/27 02:16:37;;;;;;;;;3.00;2.00;;;;;28.38;39.15;100934.47;5117055;27;46904;-74
2023/08/27 02:19:03;;;;;;;;;1.00;1.00;;;;;28.39;38.34;100941.47;5117161;27;45308;-74
2023/08/27 02:21:29;;;;;;;;;1.00;1.00;;;;;28.34;38.83;100934.09;5117222;27;45952;-74
2023/08/27 02:23:54;;;;;;;;;0.00;0.00;;;;;28.36;39.23;100942.75;5117036;27;45369;-74
2023/08/27 02:26:20;;;;;;;;;0.67;0.67;;;;;28.38;38.67;100934.47;5116449;27;46578;-74
2023/08/27 02:28:46;;;;;;;;;1.00;1.00;;;;;28.37;38.67;100938.19;5117012;27;45291;-74
2023/08/27 02:31:12;;;;;;;;;1.00;1.00;;;;;28.36;38.49;100937.41;5116913;27;45347;-74
2023/08/27 02:33:38;;;;;;;;;0.00;0.00;;;;;28.36;38.71;100934.72;5116843;27;45374;-74
2023/08/27 02:36:04;;;;;;;;;1.00;1.00;;;;;28.36;38.31;100928.53;5116692;27;46060;-74
2023/08/27 02:38:29;;;;;;;;;1.00;1.00;;;;;28.36;38.42;100929.38;5116871;27;45313;-74
2023/08/27 02:40:54;;;;;;;;;1.33;0.33;;;;;28.36;38.87;100928.53;5116571;27;45226;-74
2023/08/27 02:43:20;;;;;;;;;2.00;1.00;;;;;28.28;38.57;100917.09;5116747;27;45392;-74
2023/08/27 02:45:47;;;;;;;;;2.00;1.00;;;;;28.22;38.68;100911.78;5116573;27;45411;-74
2023/08/27 02:48:12;;;;;;;;;1.33;1.33;;;;;28.32;38.82;100921.97;5116700;27;45479;-74
2023/08/27 02:50:38;;;;;;;;;0.00;0.00;;;;;28.35;38.34;100924.22;5116897;27;45338;-74
2023/08/27 02:53:03;;;;;;;;;1.00;1.00;;;;;28.33;39.18;100924.47;5116965;27;45376;-74
2023/08/27 02:55:31;;;;;;;;;1.67;0.00;;;;;28.23;38.83;100908.91;5116165;27;46139;-73
2023/08/27 02:57:57;;;;;;;;;1.00;1.00;;;;;28.34;38.34;100925.28;5098710;27;45316;-74
2023/08/27 03:00:22;;;;;;;;;0.00;0.00;;;;;28.27;39.24;100915.44;5116678;27;45472;-74
2023/08/27 03:02:48;;;;;;;;;1.33;1.00;;;;;28.24;38.51;100909.72;5116470;27;45513;-74
2023/08/27 03:05:13;;;;;;;;;1.00;1.00;;;;;28.32;38.71;100930.84;5116331;27;47109;-74
2023/08/27 03:07:39;;;;;;;;;1.00;1.00;;;;;28.33;38.43;100928.97;5116510;27;45463;-74
2023/08/27 03:10:04;;;;;;;;;1.00;1.00;;;;;28.27;38.86;100909.28;5119166;27;45427;-74
2023/08/27 03:12:30;;;;;;;;;1.00;1.00;;;;;28.35;38.70;100922.38;5120211;27;45344;-74
2023/08/27 03:14:55;;;;;;;;;1.00;1.00;;;;;28.26;38.44;100913.81;5119922;27;46041;-75
2023/08/27 03:17:20;;;;;;;;;1.00;1.00;;;;;28.32;39.03;100927.34;5119802;27;52375;-74
2023/08/27 03:19:46;;;;;;;;;1.00;1.00;;;;;28.36;38.28;100931.22;5120187;27;45495;-74
2023/08/27 03:22:11;;;;;;;;;0.00;0.00;;;;;28.33;38.77;100926.31;5120095;27;45293;-74
2023/08/27 03:24:36;;;;;;;;;0.33;0.00;;;;;28.35;38.87;100924.22;5119321;27;47060;-74
2023/08/27 03:27:02;;;;;;;;;1.00;1.00;;;;;28.30;38.80;100919.53;5119979;27;45308;-74
2023/08/27 03:29:29;;;;;;;;;2.00;1.00;;;;;28.32;38.99;100928.16;5120084;27;45328;-74
2023/08/27 03:31:54;;;;;;;;;0.00;0.00;;;;;28.34;38.90;100928.75;5120013;27;45459;-74
2023/08/27 03:34:20;;;;;;;;;1.00;1.00;;;;;28.34;38.45;100920.72;5119380;27;46402;-74
2023/08/27 03:36:45;;;;;;;;;0.00;0.00;;;;;28.31;38.47;100913.16;5119779;27;45300;-74
2023/08/27 03:39:11;;;;;;;;;0.67;0.67;;;;;28.32;38.35;100905.94;5119626;27;45467;-74
2023/08/27 03:41:37;;;;;;;;;0.00;0.00;;;;;28.23;38.81;100895.53;5119612;27;45282;-74
2023/08/27 03:44:02;;;;;;;;;1.00;0.00;;;;;28.34;38.62;100915.38;5119455;27;45409;-74
2023/08/27 03:46:27;;;;;;;;;0.33;0.00;;;;;28.21;39.14;100888.78;5118020;27;45461;-73
2023/08/27 03:48:53;;;;;;;;;1.00;0.00;;;;;28.20;38.32;100889.81;5119746;27;45324;-74
2023/08/27 03:51:18;;;;;;;;;0.00;0.00;;;;;28.33;38.78;100910.25;5119639;27;45442;-73
2023/08/27 03:53:43;;;;;;;;;0.00;0.00;;;;;28.21;38.71;100886.91;5119074;27;46271;-75
2023/08/27 03:56:09;;;;;;;;;2.33;1.00;;;;;28.32;39.03;100901.41;5119514;27;45403;-74
2023/08/27 03:58:34;;;;;;;;;1.00;1.00;;;;;28.33;38.43;100894.19;5119761;27;45338;-74
2023/08/27 04:00:59;;;;;;;;;1.00;1.00;;;;;28.26;38.80;100888.94;5119616;27;45303;-74
2023/08/27 04:03:25;;;;;;;;;0.00;0.00;;;;;28.31;38.54;100891.75;5119215;27;45605;-74
2023/08/27 04:05:50;;;;;;;;;1.00;1.00;;;;;28.32;38.75;100901.41;5119377;27;45297;-74
2023/08/27 04:08:18;;;;;;;;;0.00;0.00;;;;;28.28;38.81;100900.22;5119107;27;45327;-74
2023/08/27 04:10:51;;;;;;;;;0.33;0.33;;;;;28.30;38.79;100895.47;5119352;27;45423;-74
2023/08/27 04:13:18;;;;;;;;;1.00;1.00;;;;;28.31;39.13;100904.31;5118860;27;46315;-74
2023/08/27 04:15:44;;;;;;;;;0.33;0.00;;;;;28.29;38.90;100897.31;5119111;27;45237;-74
2023/08/27 04:18:10;;;;;;;;;2.00;0.67;;;;;28.16;38.73;100876.88;5119058;27;45344;-74
2023/08/27 04:20:35;;;;;;;;;1.00;1.00;;;;;28.24;38.73;100894.50;5118570;27;45399;-73
2023/08/27 04:23:01;;;;;;;;;0.00;0.00;;;;;28.29;38.32;100905.34;5118612;27;46871;-74
2023/08/27 04:25:26;;;;;;;;;0.33;0.33;;;;;28.20;39.13;100887.13;5118775;27;45664;-74
2023/08/27 04:27:52;;;;;;;;;1.00;1.00;;;;;28.26;39.03;100899.63;5119095;27;45372;-74
2023/08/27 04:30:17;;;;;;;;;1.00;0.00;;;;;28.31;38.90;100918.50;5118946;27;45497;-75
2023/08/27 04:32:43;;;;;;;;;1.00;1.00;;;;;28.32;38.59;100913.97;5118726;27;46033;-75
2023/08/27 04:35:08;;;;;;;;;0.33;0.33;;;;;28.18;38.31;100898.06;5118615;27;45365;-73
2023/08/27 04:37:34;;;;;;;;;0.33;0.33;;;;;28.32;39.20;100917.47;5118585;27;45371;-74
2023/08/27 04:39:59;;;;;;;;;1.00;1.00;;;;;28.34;38.42;100922.59;5100404;27;45360;-74
2023/08/27 04:42:24;;;;;;;;;0.00;0.00;;;;;28.33;38.84;100916.44;5118259;27;54972;-74
2023/08/27 04:44:50;;;;;;;;;0.00;0.00;;;;;28.27;38.56;100910.09;5118608;27;45293;-74
2023/08/27 04:47:16;;;;;;;;;1.00;1.00;;;;;28.32;38.56;100916.63;5118649;27;45601;-73
2023/08/27 04:49:42;;;;;;;;;1.00;0.00;;;;;28.32;39.18;100920.13;5118714;27;45324;-74
2023/08/27 04:52:07;;;;;;;;;1.00;1.00;;;;;28.31;38.41;100928.38;5118095;27;47037;-74
2023/08/27 04:54:33;;;;;;;;;0.00;0.00;;;;;28.32;38.35;100938.03;5118353;27;45348;-74
2023/08/27 04:56:59;;;;;;;;;0.00;0.00;;;;;28.25;38.29;100922.88;5118665;27;45328;-74
2023/08/27 04:59:24;;;;;;;;;0.33;0.33;;;;;28.31;39.07;100937.25;5118597;27;45423;-74
2023/08/27 05:01:51;;;;;;;;;0.00;0.00;;;;;28.26;39.10;100923.72;5118169;27;46237;-73
2023/08/27 05:04:17;;;;;;;;;0.33;0.33;;;;;28.32;38.36;100941.53;5100104;27;45379;-73
2023/08/27 05:06:42;;;;;;;;;0.00;0.00;;;;;28.27;38.57;100938.69;5117958;27;45399;-74
2023/08/27 05:09:07;;;;;;;;;0.33;0.33;;;;;28.25;38.47;100938.94;5118361;27;45383;-74
2023/08/27 05:11:33;;;;;;;;;1.00;1.00;;;;;28.02;38.85;100908.28;5118249;27;45370;-74
2023/08/27 05:13:58;;;;;;;;;0.67;0.67;;;;;28.25;38.80;100938.13;5118172;27;45388;-74
2023/08/27 05:16:23;;;;;;;;;0.67;0.67;;;;;28.30;39.00;100954.31;5118178;27;45449;-74
2023/08/27 05:18:49;;;;;;;;;1.00;1.00;;;;;28.29;38.62;100955.34;5118191;27;45358;-74
2023/08/27 05:21:14;;;;;;;;;0.00;0.00;;;;;28.29;39.09;100958.03;5117691;27;46107;-74
2023/08/27 05:23:39;;;;;;;;;0.00;0.00;;;;;28.23;38.52;100953.56;5117890;27;45451;-74
2023/08/27 05:26:05;;;;;;;;;0.33;0.33;;;;;28.28;38.43;100959.06;5118102;27;45319;-74
2023/08/27 05:28:30;;;;;;;;;0.33;0.00;;;;;28.28;39.31;100961.75;5118015;27;45314;-74
2023/08/27 05:30:55;;;;;;;;;0.00;0.00;;;;;28.30;38.56;100962.34;5117167;27;46199;-74
2023/08/27 05:33:21;;;;;;;;;0.00;0.00;;;;;28.31;39.05;100947.13;5117388;27;47538;-74
2023/08/27 05:35:46;;;;;;;;;0.00;0.00;;;;;28.06;38.92;100920.19;5117678;27;45312;-73
2023/08/27 05:38:12;;;;;;;;;2.00;0.67;;;;;28.22;38.99;100944.72;5118032;27;45323;-73
2023/08/27 05:40:37;;;;;;;;;2.00;1.00;;;;;28.33;38.86;100958.41;5117564;27;46058;-74
2023/08/27 05:43:02;;;;;;;;;2.00;0.00;;;;;28.33;38.98;100955.72;5117731;27;45407;-74
2023/08/27 05:45:28;;;;;;;;;1.00;1.00;;;;;28.34;38.42;100962.72;5117706;27;45238;-74
2023/08/27 05:47:53;;;;;;;;;2.00;2.00;;;;;28.31;38.66;100952.47;5117230;27;45395;-73
2023/08/27 05:50:18;;;;;;;;;2.00;0.33;;;;;28.26;38.86;100943.22;5117524;27;46576;-74
2023/08/27 05:52:44;;;;;;;;;0.00;0.00;;;;;28.37;38.74;100965.78;5117700;27;45287;-74
2023/08/27 05:55:09;;;;;;;;;0.67;0.67;;;;;28.30;38.99;100954.31;5117471;27;45348;-74
2023/08/27 05:57:34;;;;;;;;;0.00;0.00;;;;;28.08;38.57;100919.94;5117761;27;45360;-74
2023/08/27 06:00:00;;;;;;;;;0.00;0.00;;;;;28.42;39.09;100973.13;5117429;27;45379;-74
2023/08/27 06:02:26;;;;;;;;;0.00;0.00;;;;;28.42;38.86;100965.09;5117340;27;45694;-73
2023/08/27 06:04:51;;;;;;;;;1.00;1.00;;;;;28.42;39.13;100966.97;5117440;27;45368;-74
2023/08/27 06:07:16;;;;;;;;;1.00;0.00;;;;;28.32;38.52;100957.59;5117303;27;45407;-73
2023/08/27 06:09:42;;;;;;;;;0.00;0.00;;;;;28.42;38.58;100981.16;5117264;27;48263;-73
2023/08/27 06:12:07;;;;;;;;;0.00;0.00;;;;;28.42;38.94;100975.81;5117304;27;45295;-75
2023/08/27 06:14:33;;;;;;;;;0.00;0.00;;;;;28.42;38.45;100978.47;5117222;27;45415;-74
2023/08/27 06:16:59;;;;;;;;;0.00;0.00;;;;;28.36;38.19;100974.84;5117104;27;45372;-73
2023/08/27 06:19:24;;;;;;;;;0.33;0.00;;;;;28.34;38.16;100976.13;5117094;27;45285;-74
2023/08/27 06:21:49;;;;;;;;;0.00;0.00;;;;;28.22;38.50;100951.91;5117125;27;45356;-74
2023/08/27 06:24:15;;;;;;;;;1.00;1.00;;;;;28.37;38.87;100973.78;5117088;27;45341;-74
2023/08/27 06:26:40;;;;;;;;;1.00;1.00;;;;;28.39;38.87;100979.75;5117395;27;45355;-74
2023/08/27 06:29:06;;;;;;;;;0.00;0.00;;;;;28.42;38.30;100985.72;5098543;27;46183;-74
2023/08/27 06:31:31;;;;;;;;;0.67;0.67;;;;;28.35;38.76;100983.91;5116501;27;45309;-74
2023/08/27 06:33:57;;;;;;;;;1.00;1.00;;;;;28.34;38.19;100966.22;5116912;27;45333;-74
2023/08/27 06:36:22;;;;;;;;;0.33;0.33;;;;;28.39;38.79;100990.44;5117189;27;45489;-74
2023/08/27 06:38:47;;;;;;;;;1.00;1.00;;;;;28.34;38.69;100979.59;5116908;27;45341;-74
2023/08/27 06:41:13;;;;;;;;;0.00;0.00;;;;;28.39;38.23;100982.41;5116760;27;45452;-73
2023/08/27 06:43:38;;;;;;;;;2.00;1.00;;;;;28.42;38.51;100983.03;5121240;27;45343;-74
2023/08/27 06:46:03;;;;;;;;;1.33;0.00;;;;;28.43;38.40;100984.66;5123233;27;45491;-74
2023/08/27 06:48:29;;;;;;;;;0.00;0.00;;;;;28.44;38.20;100988.97;5105029;27;47153;-74
2023/08/27 06:50:54;;;;;;;;;0.00;0.00;;;;;28.43;38.81;100996.19;5123731;27;45284;-74
2023/08/27 06:53:20;;;;;;;;;1.33;0.00;;;;;28.37;38.61;100989.03;5123785;27;45410;-74
2023/08/27 06:55:46;;;;;;;;;0.33;0.33;;;;;28.42;38.14;100993.75;5123704;27;45364;-74
2023/08/27 06:58:11;;;;;;;;;0.00;0.00;;;;;28.44;38.73;100995.16;5123358;27;47210;-74
2023/08/27 07:00:39;;;;;;;;;0.00;0.00;;;;;28.44;38.62;100994.34;5123096;27;45337;-73
2023/08/27 07:03:05;;;;;;;;;0.67;0.67;;;;;28.47;38.00;100996.59;5123521;27;45364;-74
2023/08/27 07:05:31;;;;;;;;;0.00;0.00;;;;;28.49;38.57;101011.41;5123409;27;45265;-74
2023/08/27 07:07:56;;;;;;;;;0.00;0.00;;;;;28.47;38.40;101001.97;5123304;27;46052;-74
2023/08/27 07:10:22;;;;;;;;;0.00;0.00;;;;;28.43;38.27;100993.50;5123412;27;45427;-74
2023/08/27 07:12:47;;;;;;;;;0.00;0.00;;;;;28.43;38.24;100990.84;5123577;27;45490;-74
2023/08/27 07:15:13;;;;;;;;;0.00;0.00;;;;;28.54;38.52;101007.22;5123151;27;45364;-74
2023/08/27 07:17:39;;;;;;;;;0.00;0.00;;;;;28.56;38.69;101005.97;5123261;27;46162;-74
2023/08/27 07:20:07;;;;;;;;;0.00;0.00;;;;;28.56;38.43;101005.97;5104582;27;45251;-73
2023/08/27 07:22:33;;;;;;;;;1.00;1.00;;;;;28.48;38.96;100996.38;5123404;27;45520;-74
2023/08/27 07:24:59;;;;;;;;;0.00;0.00;;;;;28.55;38.22;101011.56;5123257;27;45366;-74
2023/08/27 07:27:24;;;;;;;;;1.00;1.00;;;;;28.54;38.30;101010.72;5123071;27;46189;-74
2023/08/27 07:29:49;;;;;;;;;0.67;0.67;;;;;28.44;38.57;100997.84;5122776;27;45454;-74
2023/08/27 07:32:15;;;;;;;;;0.00;0.00;;;;;28.52;38.05;100996.75;5123267;27;45367;-73
2023/08/27 07:34:40;;;;;;;;;1.00;1.00;;;;;28.50;38.86;101005.00;5123046;27;45318;-74
2023/08/27 07:37:05;;;;;;;;;0.00;0.00;;;;;28.52;38.53;101002.09;5104544;27;48119;-74
2023/08/27 07:39:30;;;;;;;;;0.00;0.00;;;;;28.53;38.40;101003.72;5123218;27;45353;-74
2023/08/27 07:41:56;;;;;;;;;0.00;0.00;;;;;28.53;38.64;101014.44;5123158;27;45459;-73
2023/08/27 07:44:21;;;;;;;;;0.00;0.00;;;;;28.44;38.70;100991.66;5122587;27;45443;-74
2023/08/27 07:46:46;;;;;;;;;0.00;0.00;;;;;28.45;38.72;100994.13;5122870;27;47174;-74
2023/08/27 07:49:12;;;;;;;;;0.33;0.33;;;;;28.51;38.58;101000.47;5122916;27;45398;-74
2023/08/27 07:51:37;;;;;;;;;1.33;0.00;;;;;28.46;38.31;100989.59;5104634;27;45317;-74
2023/08/27 07:54:03;;;;;;;;;0.00;0.00;;;;;28.43;38.57;100990.00;5103373;27;45423;-74
2023/08/27 07:56:29;;;;;;;;;0.33;0.33;;;;;28.45;38.78;100995.97;5119217;27;46219;-74
2023/08/27 07:58:54;;;;;;;;;0.67;0.67;;;;;28.49;38.47;100999.88;5119166;27;45335;-74
2023/08/27 08:01:19;;;;;;;;;0.00;0.00;;;;;28.51;38.46;101006.63;5119364;27;45594;-74
2023/08/27 08:03:45;;;;;;;;;1.00;0.33;;;;;28.52;38.80;101010.94;5119383;27;45428;-74
2023/08/27 08:06:10;;;;;;;;;1.67;1.67;;;;;28.54;38.72;101015.25;5119252;27;48945;-74
2023/08/27 08:08:36;;;;;;;;;0.00;0.00;;;;;28.43;38.44;100990.00;5118953;27;45559;-74
2023/08/27 08:11:01;;;;;;;;;0.00;0.00;;;;;28.57;38.37;101012.97;5119498;27;45343;-73
2023/08/27 08:13:27;;;;;;;;;1.00;0.67;;;;;28.52;38.83;101010.13;5118843;27;45575;-73
2023/08/27 08:15:52;;;;;;;;;2.00;2.00;;;;;28.59;38.28;101018.09;5119181;27;46150;-73
2023/08/27 08:18:18;;;;;;;;;1.00;1.00;;;;;28.65;38.21;101022.53;5119086;27;45509;-74
2023/08/27 08:20:44;;;;;;;;;0.00;0.00;;;;;28.68;38.64;101019.44;5119390;27;45293;-74
2023/08/27 08:23:09;;;;;;;;;2.00;1.00;;;;;28.70;38.36;101024.56;5119053;27;45372;-74
2023/08/27 08:25:35;;;;;;;;;0.67;0.67;;;;;28.71;38.56;101013.63;5118866;27;46137;-73
2023/08/27 08:28:00;;;;;;;;;0.00;0.00;;;;;28.68;38.54;101002.53;5118541;27;45384;-74
2023/08/27 08:30:26;;;;;;;;;0.00;0.00;;;;;28.74;38.60;101004.34;5118990;27;45396;-73
2023/08/27 08:32:52;;;;;;;;;0.00;0.00;;;;;28.84;38.13;101020.72;5119065;27;45433;-74
2023/08/27 08:35:17;;;;;;;;;0.00;0.00;;;;;28.87;38.29;101008.72;5118512;27;45896;-73
2023/08/27 08:37:43;;;;;;;;;0.00;0.00;;;;;28.84;38.27;100999.28;5118907;27;45284;-74
2023/08/27 08:40:10;;;;;;;;;0.00;0.00;;;;;28.95;38.49;101016.47;5118932;27;45221;-74
2023/08/27 08:42:46;;;;;;;;;0.00;0.00;;;;;28.92;38.39;101003.53;5118268;27;45360;-74
2023/08/27 08:45:27;;;;;;;;;0.67;0.67;;;;;29.06;38.31;101014.09;5118210;27;46408;-74
2023/08/27 08:47:56;;;;;;;;;0.00;0.00;;;;;29.09;38.38;101026.22;5118580;27;45494;-74
2023/08/27 08:50:22;;;;;;;;;0.00;0.00;;;;;29.11;38.10;101026.84;5118729;27;45379;-74
2023/08/27 08:52:49;;;;;;;;;0.33;0.33;;;;;29.12;38.23;101028.47;5118580;27;45332;-74
2023/08/27 08:55:16;;;;;;;;;0.33;0.00;;;;;29.12;38.14;101025.81;5118326;27;46383;-74
2023/08/27 08:58:08;;;;;;;;;0.00;0.00;;;;;29.10;38.49;101020.66;5118197;27;45371;-74
2023/08/27 09:00:34;;;;;;;;;0.00;0.00;;;;;29.12;38.39;101017.78;5118473;27;45321;-74
2023/08/27 09:03:02;;;;;;;;;0.00;0.00;;;;;29.11;38.33;101024.16;5118315;27;45504;-74
2023/08/27 09:05:29;;;;;;;;;1.00;1.00;;;;;29.05;38.21;101013.25;5117627;27;46548;-74
2023/08/27 09:07:55;;;;;;;;;0.00;0.00;;;;;29.04;38.62;101008.16;5117227;27;45297;-74
2023/08/27 09:10:22;;;;;;;;;0.00;0.00;;;;;29.09;38.29;101016.34;5118362;27;45356;-74
2023/08/27 09:12:48;;;;;;;;;0.00;0.00;;;;;29.03;38.54;101012.69;5117861;27;45507;-74
2023/08/27 09:15:13;;;;;;;;;1.00;1.00;;;;;29.00;37.99;100998.91;5118000;27;46145;-74
2023/08/27 09:17:39;;;;;;;;;0.00;0.00;;;;;29.15;38.21;101022.66;5118296;27;45398;-74
2023/08/27 09:20:06;;;;;;;;;0.00;0.00;;;;;29.11;38.03;101024.16;5118195;27;45401;-74
2023/08/27 09:22:35;;;;;;;;;1.00;0.67;;;;;29.14;38.22;101026.38;5118178;27;45490;-73
2023/08/27 09:25:00;;;;;;;;;0.00;0.00;;;;;29.17;38.19;101028.63;5117905;27;46205;-74
2023/08/27 09:27:27;;;;;;;;;0.00;0.00;;;;;29.16;38.22;101033.16;5117472;27;45292;-73
2023/08/27 09:29:53;;;;;;;;;0.00;0.00;;;;;29.16;38.56;101033.16;5118232;27;45303;-74
2023/08/27 09:32:21;;;;;;;;;2.00;0.00;;;;;29.09;38.12;101015.50;5117064;27;45647;-74
2023/08/27 09:34:46;;;;;;;;;0.00;0.00;;;;;28.92;38.19;100989.31;5117612;27;47291;-74
2023/08/27 09:37:12;;;;;;;;;0.33;0.33;;;;;29.16;38.49;101024.31;5117889;27;45318;-74
2023/08/27 09:39:40;;;;;;;;;0.00;0.00;;;;;29.08;38.13;101006.63;5118196;27;45372;-73
2023/08/27 09:42:05;;;;;;;;;0.00;0.00;;;;;29.13;38.09;101024.75;5117460;27;45416;-74
2023/08/27 09:44:31;;;;;;;;;0.00;0.00;;;;;29.06;38.29;101011.41;5117370;27;46102;-75
2023/08/27 09:47:04;;;;;;;;;0.00;0.00;;;;;29.07;38.41;101026.41;5117639;27;45425;-74
2023/08/27 09:49:29;;;;;;;;;0.00;0.00;;;;;29.11;37.95;101033.00;5117854;27;45431;-74
2023/08/27 09:51:57;;;;;;;;;0.00;0.00;;;;;29.07;38.48;101035.28;5117689;27;45198;-74
2023/08/27 09:54:29;;;;;;;;;1.00;1.00;;;;;29.15;38.64;101036.88;5117112;27;45309;-76
2023/08/27 09:56:59;;;;;;;;;0.00;0.00;;;;;28.97;38.64;101000.16;5117508;27;45317;-75
2023/08/27 09:59:26;;;;;;;;;0.00;0.00;;;;;29.17;38.39;101031.31;5117597;27;45324;-74
2023/08/27 10:01:52;;;;;;;;;0.00;0.00;;;;;29.07;38.47;101016.53;5117440;27;45404;-74
2023/08/27 10:04:19;;;;;;;;;0.50;0.50;;;;;29.10;38.65;101017.16;5117189;27;46207;-74
2023/08/27 10:06:45;;;;;;;;;1.00;1.00;;;;;29.20;38.22;101027.34;5098936;27;45447;-74
2023/08/27 10:09:10;;;;;;;;;0.00;0.00;;;;;29.13;38.48;101016.69;5117154;27;45282;-74
2023/08/27 10:11:37;;;;;;;;;0.00;0.00;;;;;29.13;37.89;101009.50;5117664;27;45212;-74
2023/08/27 10:14:03;;;;;;;;;1.00;1.00;;;;;29.24;37.89;101021.31;5117255;27;46153;-74
2023/08/27 10:16:30;;;;;;;;;0.33;0.33;;;;;29.20;38.28;101017.44;5117272;27;45376;-74
2023/08/27 10:18:57;;;;;;;;;0.33;0.33;;;;;29.23;37.96;101016.16;5116847;27;45313;-74
2023/08/27 10:21:23;;;;;;;;;0.00;0.00;;;;;29.17;38.26;101010.66;5117240;27;45399;-74
2023/08/27 10:23:48;;;;;;;;;0.00;0.00;;;;;29.10;38.39;101006.44;5116584;27;45356;-74
2023/08/27 10:26:14;;;;;;;;;0.67;0.67;;;;;29.20;38.26;101020.13;5117091;27;45463;-74
2023/08/27 10:28:41;;;;;;;;;1.33;1.00;;;;;29.19;38.44;101029.22;5117244;27;45376;-74
2023/08/27 10:31:07;;;;;;;;;0.00;0.00;;;;;29.17;38.69;101036.66;5117064;27;45357;-74
2023/08/27 10:33:33;;;;;;;;;1.00;1.00;;;;;29.07;38.43;101048.69;5116635;27;47168;-73
2023/08/27 10:36:05;;;;;;;;;0.00;0.00;;;;;29.03;38.61;101039.47;5098450;27;45938;-74
2023/08/27 10:38:34;;;;;;;;;2.00;1.00;;;;;29.12;38.55;101047.22;5116722;27;45292;-74
2023/08/27 10:41:00;;;;;;;;;0.00;0.00;;;;;29.02;37.83;101048.53;5116902;27;45416;-74
2023/08/27 10:43:35;;;;;;;;;0.00;0.00;;;;;29.09;38.18;101053.84;5116690;27;46873;-74
2023/08/27 10:46:17;;;;;;;;;1.00;1.00;;;;;29.09;38.43;101050.31;5116507;27;45350;-74
2023/08/27 10:48:49;;;;;;;;;0.00;0.00;;;;;29.08;38.54;101062.88;5116979;27;45399;-74
2023/08/27 10:51:16;;;;;;;;;0.00;0.00;;;;;29.08;38.64;101054.84;5116802;27;45486;-74
2023/08/27 10:53:50;;;;;;;;;0.00;0.00;;;;;29.10;38.42;101052.78;5116291;27;47288;-74
2023/08/27 10:56:37;;;;;;;;;0.67;0.67;;;;;29.11;38.38;101057.13;5116742;27;45364;-74
2023/08/27 10:59:09;;;;;;;;;1.00;1.00;;;;;29.11;38.23;101058.97;5117087;27;45515;-74
2023/08/27 11:01:55;;;;;;;;;0.33;0.33;;;;;29.12;38.45;101064.09;5116717;27;45368;-74
2023/08/27 11:04:34;;;;;;;;;1.33;0.00;;;;;29.11;38.63;101058.97;5114554;27;46471;-74
2023/08/27 11:07:11;;;;;;;;;0.00;0.00;;;;;29.11;38.39;101053.63;5116306;27;45382;-74
2023/08/27 11:09:56;;;;;;;;;0.67;0.67;;;;;29.11;38.44;101042.91;5116616;27;45297;-74
2023/08/27 11:12:23;;;;;;;;;0.00;0.00;;;;;29.11;38.83;101058.97;5116617;27;45266;-74
2023/08/27 11:14:48;;;;;;;;;0.00;0.00;;;;;29.06;38.54;101056.94;5116366;27;47030;-74
2023/08/27 11:17:23;;;;;;;;;0.33;0.00;;;;;29.04;38.76;101041.06;5116416;27;45456;-74
2023/08/27 11:19:48;;;;;;;;;0.33;0.33;;;;;29.05;38.62;101044.59;5116506;27;45357;-74
2023/08/27 11:22:17;;;;;;;;;0.67;0.67;;;;;29.10;38.80;101055.47;5116098;27;45286;-74